Time;durP1;ratioP1;P1;durP2;ratioP2;P2;SDS_P1;SDS_P2;PMS_P1;PMS_P2;Temp;Humidity;BMP_temperature;BMP_pressure;BME280_temperature;BME280_humidity;BME280_pressure;Samples;Min_cycle;Max_cycle;Signal;HPM_P1;HPM_P2
2023/10/15 00:01:05;;;;;;;10.17;2.30;;;;;;;7.98;75.76;100776.78;5072655;28;20205;-73
2023/10/15 00:03:34;;;;;;;12.93;3.10;;;;;;;8.01;75.68;100791.69;5072894;28;20280;-73
2023/10/15 00:06:03;;;;;;;13.40;2.63;;;;;;;7.89;75.78;100796.31;5072842;28;20221;-73
2023/10/15 00:08:33;;;;;;;12.03;3.17;;;;;;;7.98;76.16;100786.63;5072862;28;20263;-73
2023/10/15 00:11:01;;;;;;;11.40;2.80;;;;;;;7.95;75.96;100795.75;5072917;28;20590;-73
2023/10/15 00:13:30;;;;;;;10.97;2.67;;;;;;;7.92;76.07;100789.84;5072880;28;20225;-73
2023/10/15 00:15:58;;;;;;;12.43;2.53;;;;;;;7.90;76.46;100800.66;5072754;28;20290;-73
2023/10/15 00:18:28;;;;;;;12.80;3.10;;;;;;;7.90;76.55;100797.16;5072839;28;20205;-73
2023/10/15 00:21:01;;;;;;;14.07;2.80;;;;;;;7.84;76.74;100800.41;5072479;28;20679;-73
2023/10/15 00:23:32;;;;;;;14.07;3.07;;;;;;;7.82;76.89;100799.69;5072804;28;20206;-73
2023/10/15 00:26:00;;;;;;;10.93;2.80;;;;;;;7.77;76.68;100800.13;5072748;28;20308;-72
2023/10/15 00:28:29;;;;;;;9.97;2.70;;;;;;;7.82;76.59;100805.84;5074735;28;20675;-73
2023/10/15 00:31:00;;;;;;;15.70;3.17;;;;;;;7.85;76.96;100810.06;5076336;28;20293;-73
2023/10/15 00:33:30;;;;;;;9.17;3.10;;;;;;;7.84;77.29;100806.53;5076262;28;20181;-73
2023/10/15 00:35:59;;;;;;;8.73;2.63;;;;;;;7.79;76.88;100810.63;5076128;28;20306;-73
2023/10/15 00:38:28;;;;;;;13.87;3.10;;;;;;;7.79;77.32;100807.97;5076172;28;20243;-73
2023/10/15 00:41:07;;;;;;;12.57;3.00;;;;;;;7.81;76.61;100811.34;5076127;28;20216;-73
2023/10/15 00:43:35;;;;;;;8.77;2.43;;;;;;;7.75;77.61;100809.22;5076000;28;20220;-73
2023/10/15 00:46:13;;;;;;;14.77;3.43;;;;;;;7.69;77.98;100802.63;5075900;28;20231;-73
2023/10/15 00:48:41;;;;;;;11.93;2.97;;;;;;;7.72;77.63;100809.50;5075697;28;20668;-73
2023/10/15 00:51:12;;;;;;;14.47;2.83;;;;;;;7.65;77.69;100804.72;5075585;28;20221;-73
2023/10/15 00:53:50;;;;;;;11.23;2.77;;;;;;;7.65;78.48;100810.06;5075892;28;20239;-73
2023/10/15 00:56:22;;;;;;;7.03;2.30;;;;;;;7.63;78.29;100801.38;5075901;28;20277;-72
2023/10/15 00:59:13;;;;;;;11.97;2.60;;;;;;;7.64;78.13;100803.03;5075801;28;20194;-73
2023/10/15 01:01:53;;;;;;;10.53;2.70;;;;;;;7.64;78.39;100804.88;5075737;28;20216;-73
2023/10/15 01:04:24;;;;;;;14.27;2.83;;;;;;;7.68;78.59;100790.28;5075538;28;20233;-73
2023/10/15 01:06:59;;;;;;;13.10;3.20;;;;;;;7.64;78.31;100792.38;5075636;28;20217;-72
2023/10/15 01:09:28;;;;;;;12.40;3.00;;;;;;;7.62;78.48;100791.69;5075310;28;20282;-73
2023/10/15 01:12:18;;;;;;;14.03;2.87;;;;;;;7.55;78.41;100790.56;5075537;28;20292;-73
2023/10/15 01:14:47;;;;;;;11.90;3.00;;;;;;;7.53;78.94;100791.69;5075423;28;20217;-73
2023/10/15 01:17:14;;;;;;;10.33;3.30;;;;;;;7.53;78.55;100797.84;5075439;28;20304;-73
2023/10/15 01:19:43;;;;;;;13.23;2.93;;;;;;;7.50;78.62;100803.44;5075382;28;20259;-73
2023/10/15 01:22:18;;;;;;;10.47;3.13;;;;;;;7.56;79.17;100802.91;5075306;28;20210;-73
2023/10/15 01:24:53;;;;;;;11.47;2.60;;;;;;;7.54;78.59;100788.03;5074914;28;20695;-73
2023/10/15 01:27:27;;;;;;;10.30;2.50;;;;;;;7.52;79.05;100785.53;5075251;28;20232;-73
2023/10/15 01:29:58;;;;;;;14.50;3.00;;;;;;;7.50;79.01;100782.13;5074921;28;20708;-73
2023/10/15 01:32:27;;;;;;;11.80;2.67;;;;;;;7.52;79.56;100785.53;5075167;28;20190;-73
2023/10/15 01:34:59;;;;;;;11.00;3.03;;;;;;;7.54;78.90;100780.88;5074982;28;20226;-73
2023/10/15 01:37:27;;;;;;;11.30;3.10;;;;;;;7.42;79.05;100779.34;5075069;28;20196;-73
2023/10/15 01:40:00;;;;;;;13.67;2.50;;;;;;;7.52;79.80;100782.00;5074530;28;20205;-73
2023/10/15 01:42:41;;;;;;;9.57;2.50;;;;;;;7.53;79.49;100779.19;5074986;28;20193;-72
2023/10/15 01:45:30;;;;;;;8.00;2.50;;;;;;;7.49;79.01;100774.31;5074786;28;20237;-73
2023/10/15 01:48:12;;;;;;;9.53;2.80;;;;;;;7.50;79.50;100776.81;5074839;28;20190;-73
2023/10/15 01:50:46;;;;;;;10.37;2.83;;;;;;;7.47;79.50;100779.75;5074524;28;20304;-73
2023/10/15 01:53:15;;;;;;;12.90;2.60;;;;;;;7.38;80.10;100772.63;5075303;28;20196;-73
2023/10/15 01:58:33;;;;;;;13.63;2.87;;;;;;;7.40;79.78;100773.31;5074601;28;20190;-73
2023/10/15 02:01:20;;;;;;;12.83;2.83;;;;;;;7.50;79.72;100776.00;5074609;28;20201;-73
2023/10/15 02:03:49;;;;;;;9.77;2.60;;;;;;;7.41;80.04;100769.66;5075286;28;20193;-73
2023/10/15 02:06:19;;;;;;;9.67;3.17;;;;;;;7.38;79.49;100769.94;5074088;28;20676;-72
2023/10/15 02:08:51;;;;;;;15.47;2.83;;;;;;;7.47;79.81;100773.59;5074415;28;20197;-73
2023/10/15 02:11:22;;;;;;;9.37;2.83;;;;;;;7.50;79.90;100782.13;5074356;28;20299;-72
2023/10/15 02:13:51;;;;;;;12.77;3.00;;;;;;;7.50;79.24;100762.69;5074294;28;20212;-73
2023/10/15 02:16:29;;;;;;;10.50;2.77;;;;;;;7.48;79.50;100769.94;5074201;28;20359;-73
2023/10/15 02:18:59;;;;;;;13.67;3.03;;;;;;;7.51;78.83;100773.19;5074274;28;20190;-73
2023/10/15 02:21:31;;;;;;;13.23;2.67;;;;;;;7.58;78.82;100768.97;5073858;28;20574;-73
2023/10/15 02:24:08;;;;;;;13.03;2.83;;;;;;;7.56;78.23;100770.09;5073665;28;20192;-73
2023/10/15 02:26:38;;;;;;;9.93;2.50;;;;;;;7.59;78.85;100768.00;5074103;28;20201;-73
2023/10/15 02:29:21;;;;;;;13.97;2.87;;;;;;;7.61;78.82;100767.84;5074027;28;20300;-73
2023/10/15 02:31:50;;;;;;;12.27;2.77;;;;;;;7.51;78.14;100759.84;5073665;28;20547;-72
2023/10/15 02:34:24;;;;;;;10.90;3.33;;;;;;;7.53;78.09;100760.53;5073909;28;20693;-73
2023/10/15 02:36:53;;;;;;;11.83;2.80;;;;;;;7.55;77.90;100763.94;5073967;28;20197;-73
2023/10/15 02:39:22;;;;;;;12.53;3.03;;;;;;;7.54;77.30;100766.72;5073583;28;20762;-73
2023/10/15 02:41:52;;;;;;;8.23;2.20;;;;;;;7.51;78.16;100767.84;5073836;28;20212;-73
2023/10/15 02:44:21;;;;;;;12.87;2.60;;;;;;;7.53;78.16;100768.53;5073411;28;20690;-71
2023/10/15 02:46:58;;;;;;;9.33;2.57;;;;;;;7.53;78.11;100776.53;5073762;28;20205;-71
2023/10/15 02:49:27;;;;;;;10.83;2.30;;;;;;;7.55;76.67;100782.56;5073500;28;20188;-71
2023/10/15 02:51:56;;;;;;;9.53;2.50;;;;;;;7.55;76.73;100779.91;5072966;28;20679;-71
2023/10/15 02:54:28;;;;;;;13.67;2.30;;;;;;;7.56;76.39;100770.94;5073585;28;20316;-71
2023/10/15 02:56:59;;;;;;;6.90;2.53;;;;;;;7.55;76.32;100779.91;5073637;28;20190;-71
2023/10/15 02:59:31;;;;;;;9.70;2.37;;;;;;;7.55;77.01;100777.25;5073624;28;20276;-71
2023/10/15 03:02:06;;;;;;;6.40;2.10;;;;;;;7.56;77.26;100776.28;5073666;28;20190;-71
2023/10/15 03:04:38;;;;;;;9.93;2.50;;;;;;;7.54;76.67;100777.38;5073130;28;20578;-71
2023/10/15 03:07:19;;;;;;;6.83;2.13;;;;;;;7.55;76.26;100774.59;5073549;28;20573;-71
2023/10/15 03:09:52;;;;;;;6.90;2.40;;;;;;;7.49;76.28;100783.16;5073211;28;20533;-71
2023/10/15 03:12:22;;;;;;;8.20;2.07;;;;;;;7.49;76.26;100777.81;5073179;28;20719;-71
2023/10/15 03:14:51;;;;;;;10.83;2.30;;;;;;;7.48;75.97;100775.28;5073047;28;20221;-71
2023/10/15 03:17:25;;;;;;;5.90;2.07;;;;;;;7.48;75.86;100770.78;5073406;28;20240;-71
2023/10/15 03:19:55;;;;;;;7.10;2.27;;;;;;;7.50;76.04;100771.47;5073180;28;20686;-71
2023/10/15 03:22:25;;;;;;;10.07;2.40;;;;;;;7.51;76.55;100765.19;5073385;28;20300;-71
2023/10/15 03:24:56;;;;;;;7.73;2.30;;;;;;;7.55;76.40;100766.59;5072858;28;20680;-71
2023/10/15 03:27:27;;;;;;;9.90;2.13;;;;;;;7.54;76.12;100769.38;5072939;28;20331;-71
2023/10/15 03:29:56;;;;;;;6.60;1.80;;;;;;;7.48;76.24;100770.78;5073217;28;20212;-71
2023/10/15 03:32:31;;;;;;;10.33;2.23;;;;;;;7.44;76.14;100766.72;5073183;28;20205;-71
2023/10/15 03:35:05;;;;;;;8.67;2.23;;;;;;;7.48;76.29;100773.47;5073161;28;20311;-71
2023/10/15 03:37:38;;;;;;;9.83;2.10;;;;;;;7.48;75.94;100777.94;5073192;28;20224;-71
2023/10/15 03:40:13;;;;;;;9.57;2.17;;;;;;;7.47;76.19;100773.59;5073214;28;20560;-71
2023/10/15 03:42:44;;;;;;;4.53;1.87;;;;;;;7.44;75.65;100785.38;5073212;28;20193;-71
2023/10/15 03:45:26;;;;;;;5.50;1.77;;;;;;;7.42;76.21;100779.34;5073071;28;20320;-71
2023/10/15 03:47:57;;;;;;;8.57;1.80;;;;;;;7.48;76.70;100777.94;5073166;28;20240;-71
2023/10/15 03:50:29;;;;;;;7.23;1.90;;;;;;;7.47;75.95;100769.09;5072865;28;20217;-71
2023/10/15 03:52:58;;;;;;;7.03;2.20;;;;;;;7.46;76.54;100779.91;5072763;28;20197;-71
2023/10/15 03:55:26;;;;;;;8.53;2.23;;;;;;;7.42;76.01;100779.34;5072972;28;20221;-71
2023/10/15 03:57:58;;;;;;;8.00;2.00;;;;;;;7.47;75.89;100770.91;5073051;28;20292;-71
2023/10/15 04:00:35;;;;;;;7.40;1.83;;;;;;;7.48;76.12;100777.94;5073028;28;20194;-71
2023/10/15 04:03:17;;;;;;;7.17;1.83;;;;;;;7.51;76.66;100770.50;5076417;28;20190;-71
2023/10/15 04:05:53;;;;;;;5.97;1.63;;;;;;;7.56;76.08;100770.94;5076348;28;20679;-71
2023/10/15 04:08:25;;;;;;;3.07;1.60;;;;;;;7.51;76.25;100773.19;5076763;28;20217;-71
2023/10/15 04:10:56;;;;;;;5.00;1.33;;;;;;;7.50;76.00;100762.69;5076461;28;20659;-72
2023/10/15 04:13:27;;;;;;;3.60;1.67;;;;;;;7.49;76.08;100769.81;5076406;28;20288;-73
2023/10/15 04:15:56;;;;;;;4.90;1.57;;;;;;;7.48;76.47;100772.63;5076233;28;20756;-73
2023/10/15 04:18:25;;;;;;;5.23;1.63;;;;;;;7.47;76.78;100777.09;5076523;28;20205;-72
2023/10/15 04:20:54;;;;;;;3.50;1.33;;;;;;;7.47;76.75;100773.59;5076481;28;20306;-73
2023/10/15 04:23:31;;;;;;;7.33;2.10;;;;;;;7.49;77.04;100764.50;5076424;28;20202;-73
2023/10/15 04:26:03;;;;;;;4.97;1.60;;;;;;;7.45;77.18;100771.06;5076300;28;20235;-73
2023/10/15 04:28:36;;;;;;;4.03;1.50;;;;;;;7.45;77.72;100763.09;5076056;28;20537;-73
2023/10/15 04:31:11;;;;;;;4.30;1.70;;;;;;;7.49;77.40;100774.31;5076326;28;20194;-73
2023/10/15 04:33:41;;;;;;;8.30;1.70;;;;;;;7.47;77.57;100774.44;5076214;28;20193;-72
2023/10/15 04:36:10;;;;;;;5.93;1.77;;;;;;;7.47;77.96;100779.75;5076104;28;20256;-72
2023/10/15 04:38:38;;;;;;;3.20;1.17;;;;;;;7.47;78.05;100774.44;5076176;28;20245;-73
2023/10/15 04:41:06;;;;;;;4.23;1.30;;;;;;;7.46;78.21;100774.59;5076160;28;20201;-73
2023/10/15 04:43:42;;;;;;;3.60;1.20;;;;;;;7.49;78.03;100783.16;5076068;28;20300;-73
2023/10/15 04:46:16;;;;;;;3.70;1.20;;;;;;;7.46;78.02;100774.59;5075920;28;20323;-73
2023/10/15 04:48:47;;;;;;;3.30;1.33;;;;;;;7.43;77.55;100789.00;5076039;28;20197;-73
2023/10/15 04:51:16;;;;;;;2.30;1.17;;;;;;;7.42;78.05;100784.69;5075570;28;20617;-73
2023/10/15 04:53:48;;;;;;;4.00;1.20;;;;;;;7.38;77.50;100788.59;5075868;28;20205;-73
2023/10/15 04:56:17;;;;;;;5.07;1.63;;;;;;;7.36;77.97;100789.72;5075615;28;20239;-73
2023/10/15 04:58:48;;;;;;;3.47;1.30;;;;;;;7.38;77.97;100780.59;5075812;28;20271;-73
2023/10/15 05:01:16;;;;;;;3.83;1.27;;;;;;;7.42;78.40;100782.00;5075777;28;20200;-73
2023/10/15 05:03:46;;;;;;;5.23;1.27;;;;;;;7.36;78.91;100774.59;5075671;28;20210;-72
2023/10/15 05:06:15;;;;;;;4.23;1.47;;;;;;;7.34;78.61;100771.19;5075477;28;20229;-73
2023/10/15 05:08:47;;;;;;;3.07;1.43;;;;;;;7.33;78.17;100779.34;5075607;28;20295;-73
2023/10/15 05:11:21;;;;;;;3.13;1.30;;;;;;;7.32;78.76;100767.84;5075635;28;20289;-73
2023/10/15 05:13:51;;;;;;;3.10;1.30;;;;;;;7.38;78.93;100785.09;5074790;28;20351;-73
2023/10/15 05:16:20;;;;;;;2.77;1.10;;;;;;;7.29;78.64;100777.94;5075143;28;20660;-73
2023/10/15 05:18:48;;;;;;;2.97;1.17;;;;;;;7.27;78.87;100786.06;5075404;28;20254;-73
2023/10/15 05:21:17;;;;;;;4.50;1.40;;;;;;;7.27;79.16;100778.06;5075367;28;20216;-73
2023/10/15 05:23:46;;;;;;;2.27;1.30;;;;;;;7.21;79.06;100773.28;5075325;28;20304;-73
2023/10/15 05:26:16;;;;;;;2.47;1.20;;;;;;;7.22;79.33;100782.97;5075112;28;20229;-73
2023/10/15 05:28:44;;;;;;;3.70;1.40;;;;;;;7.23;79.98;100778.47;5075532;28;20255;-73
2023/10/15 05:31:14;;;;;;;4.27;1.37;;;;;;;7.23;79.73;100784.63;5075119;28;20210;-73
2023/10/15 05:33:43;;;;;;;2.90;1.23;;;;;;;7.21;79.58;100783.09;5075130;28;20209;-73
2023/10/15 05:36:12;;;;;;;3.97;1.47;;;;;;;7.22;80.10;100777.66;5074674;28;20256;-73
2023/10/15 05:38:40;;;;;;;3.30;1.70;;;;;;;7.20;80.35;100773.41;5075029;28;20284;-73
2023/10/15 05:41:09;;;;;;;3.07;1.20;;;;;;;7.25;79.85;100777.38;5074621;28;20627;-73
2023/10/15 05:43:37;;;;;;;5.60;1.50;;;;;;;7.23;79.67;100779.31;5074909;28;20202;-73
2023/10/15 05:46:06;;;;;;;6.23;1.50;;;;;;;7.19;79.72;100788.59;5074709;28;20244;-73
2023/10/15 05:48:36;;;;;;;3.80;1.30;;;;;;;7.20;80.22;100784.91;5074495;28;20201;-73
2023/10/15 05:51:06;;;;;;;4.03;1.40;;;;;;;7.12;80.56;100780.28;5074455;28;20279;-73
2023/10/15 05:53:34;;;;;;;2.73;1.30;;;;;;;7.18;79.95;100781.56;5074412;28;20210;-73
2023/10/15 05:56:03;;;;;;;3.40;1.40;;;;;;;7.18;80.01;100788.69;5074590;28;20304;-73
2023/10/15 05:58:32;;;;;;;3.17;1.40;;;;;;;7.07;80.74;100784.34;5074651;28;20211;-73
2023/10/15 06:01:03;;;;;;;3.83;1.20;;;;;;;7.06;80.17;100787.97;5074613;28;20205;-73
2023/10/15 06:03:32;;;;;;;3.43;1.23;;;;;;;7.06;80.71;100793.28;5074285;28;20565;-74
2023/10/15 06:06:02;;;;;;;2.57;1.30;;;;;;;7.00;80.16;100793.84;5074301;28;20298;-72
2023/10/15 06:08:30;;;;;;;6.70;1.33;;;;;;;6.96;80.12;100795.09;5074463;28;20236;-73
2023/10/15 06:10:59;;;;;;;2.80;1.30;;;;;;;7.00;80.49;100794.69;5074080;28;20205;-73
2023/10/15 06:13:27;;;;;;;3.77;1.60;;;;;;;6.92;80.04;100796.31;5074343;28;20274;-72
2023/10/15 06:15:56;;;;;;;2.70;1.20;;;;;;;6.90;80.24;100806.28;5073899;28;20225;-73
2023/10/15 06:18:25;;;;;;;2.60;1.10;;;;;;;6.88;79.74;100800.25;5074257;28;20288;-73
2023/10/15 06:20:53;;;;;;;1.97;0.90;;;;;;;6.87;80.11;100803.91;5074210;28;20209;-73
2023/10/15 06:23:23;;;;;;;2.13;1.17;;;;;;;6.88;79.82;100816.22;5074163;28;20207;-73
2023/10/15 06:25:52;;;;;;;3.30;1.20;;;;;;;6.90;79.58;100816.94;5074049;28;20312;-73
2023/10/15 06:28:20;;;;;;;2.53;1.20;;;;;;;6.95;79.92;100825.38;5074013;28;20229;-73
2023/10/15 06:30:49;;;;;;;3.00;1.70;;;;;;;6.95;79.47;100833.34;5074044;28;20201;-73
2023/10/15 06:33:18;;;;;;;4.70;1.33;;;;;;;7.00;79.30;100831.09;5073646;28;20212;-73
2023/10/15 06:35:46;;;;;;;2.83;1.03;;;;;;;6.98;78.97;100833.06;5073524;28;20637;-73
2023/10/15 06:38:17;;;;;;;2.90;1.40;;;;;;;7.00;79.88;100839.09;5073575;28;20648;-73
2023/10/15 06:40:47;;;;;;;2.20;0.90;;;;;;;6.94;79.59;100832.50;5073922;28;20244;-73
2023/10/15 06:43:16;;;;;;;4.33;1.30;;;;;;;6.93;79.79;100845.94;5073497;28;20623;-73
2023/10/15 06:45:44;;;;;;;2.60;1.30;;;;;;;6.97;80.24;100842.88;5073783;28;20316;-73
2023/10/15 06:48:13;;;;;;;2.87;1.37;;;;;;;6.96;79.84;100846.50;5073696;28;20312;-73
2023/10/15 06:50:42;;;;;;;2.07;1.20;;;;;;;7.01;79.79;100849.63;5073433;28;20308;-73
2023/10/15 06:53:11;;;;;;;4.83;1.20;;;;;;;7.03;79.38;100857.44;5073369;28;20667;-73
2023/10/15 06:55:39;;;;;;;2.97;1.50;;;;;;;7.03;79.94;100852.13;5073573;28;20232;-73
2023/10/15 06:58:11;;;;;;;3.97;1.10;;;;;;;7.01;79.69;100856.75;5073610;28;20201;-73
2023/10/15 07:00:39;;;;;;;2.57;1.20;;;;;;;7.03;80.06;100857.44;5074267;28;20227;-73
2023/10/15 07:03:08;;;;;;;2.10;1.20;;;;;;;7.01;80.11;100846.09;5073529;28;20213;-73
2023/10/15 07:05:37;;;;;;;2.63;1.00;;;;;;;7.01;80.47;100849.63;5073506;28;20255;-73
2023/10/15 07:08:07;;;;;;;4.70;1.43;;;;;;;7.05;80.59;100855.50;5073569;28;20232;-74
2023/10/15 07:10:36;;;;;;;3.47;1.63;;;;;;;7.10;80.39;100869.25;5073188;28;20671;-72
2023/10/15 07:13:06;;;;;;;4.33;1.37;;;;;;;7.13;80.83;100866.31;5073482;28;20206;-73
2023/10/15 07:15:37;;;;;;;2.80;1.43;;;;;;;7.13;80.52;100869.81;5073415;28;20264;-72
2023/10/15 07:18:06;;;;;;;1.50;1.00;;;;;;;7.18;80.82;100871.25;5073485;28;20196;-73
2023/10/15 07:20:35;;;;;;;2.87;1.10;;;;;;;7.18;81.64;100877.41;5073406;28;20206;-73
2023/10/15 07:23:03;;;;;;;4.60;1.33;;;;;;;7.22;81.38;100868.19;5073429;28;20206;-73
2023/10/15 07:25:33;;;;;;;2.63;1.30;;;;;;;7.27;81.78;100876.59;5072940;28;20583;-72
2023/10/15 07:28:02;;;;;;;1.37;1.10;;;;;;;7.28;81.47;100882.75;5072887;28;20594;-72
2023/10/15 07:30:31;;;;;;;2.10;1.10;;;;;;;7.30;81.58;100878.97;5072972;28;20304;-72
2023/10/15 07:33:01;;;;;;;3.80;1.00;;;;;;;7.35;81.80;100883.91;5072965;28;20579;-72
2023/10/15 07:35:31;;;;;;;3.30;1.40;;;;;;;7.37;81.09;100880.13;5073214;28;20232;-72
2023/10/15 07:38:02;;;;;;;1.33;1.00;;;;;;;7.41;82.14;100884.19;5076701;28;20206;-72
2023/10/15 07:40:33;;;;;;;3.40;1.70;;;;;;;7.41;82.21;100883.34;5077368;28;20193;-72
2023/10/15 07:43:02;;;;;;;2.93;1.30;;;;;;;7.40;81.40;100881.66;5077255;28;20189;-72
2023/10/15 07:45:32;;;;;;;3.83;1.30;;;;;;;7.42;82.32;100891.22;5077081;28;20227;-72
2023/10/15 07:48:05;;;;;;;2.37;1.20;;;;;;;7.42;81.45;100899.22;5076784;28;20214;-72
2023/10/15 07:50:35;;;;;;;3.13;1.30;;;;;;;7.50;82.61;100898.53;5076715;28;20679;-72
2023/10/15 07:53:04;;;;;;;3.67;1.30;;;;;;;7.48;81.52;100914.66;5076766;28;20671;-73
2023/10/15 07:55:34;;;;;;;3.57;1.40;;;;;;;7.49;80.96;100908.34;5076968;28;20286;-72
2023/10/15 07:58:02;;;;;;;4.43;1.40;;;;;;;7.50;82.08;100914.53;5077022;28;20577;-72
2023/10/15 08:00:31;;;;;;;4.77;1.30;;;;;;;7.50;81.88;100910.00;5076611;28;20624;-72
2023/10/15 08:03:02;;;;;;;2.80;1.30;;;;;;;7.55;81.72;100907.78;5076596;28;20259;-72
2023/10/15 08:05:32;;;;;;;2.87;1.50;;;;;;;7.56;80.73;100903.31;5076745;28;20222;-72
2023/10/15 08:08:04;;;;;;;4.10;1.80;;;;;;;7.64;81.17;100901.63;5076772;28;20206;-72
2023/10/15 08:10:34;;;;;;;3.43;2.33;;;;;;;7.77;80.07;100903.22;5076754;28;20194;-73
2023/10/15 08:13:06;;;;;;;1.90;1.30;;;;;;;7.87;80.34;100907.56;5076420;28;20659;-73
2023/10/15 08:15:36;;;;;;;3.93;1.33;;;;;;;7.91;80.34;100911.63;5076541;28;20328;-72
2023/10/15 08:18:07;;;;;;;3.70;1.53;;;;;;;7.90;80.56;100915.28;5076277;28;20577;-73
2023/10/15 08:20:36;;;;;;;3.00;1.30;;;;;;;7.92;80.74;100925.81;5077021;28;20189;-72
2023/10/15 08:23:04;;;;;;;3.30;1.30;;;;;;;7.94;79.27;100931.84;5076166;28;20296;-72
2023/10/15 08:25:33;;;;;;;3.73;1.30;;;;;;;7.95;80.09;100926.38;5076364;28;20237;-72
2023/10/15 08:28:03;;;;;;;5.17;1.33;;;;;;;7.94;79.21;100930.03;5076296;28;20275;-72
2023/10/15 08:30:32;;;;;;;2.63;1.60;;;;;;;7.99;78.43;100926.94;5076376;28;20209;-72
2023/10/15 08:33:03;;;;;;;2.93;1.50;;;;;;;7.97;78.00;100928.91;5076273;28;20215;-72
2023/10/15 08:35:33;;;;;;;4.17;1.70;;;;;;;7.98;78.63;100936.75;5075856;28;20622;-72
2023/10/15 08:38:02;;;;;;;4.60;2.20;;;;;;;8.00;78.60;100934.81;5076171;28;20239;-72
2023/10/15 08:40:35;;;;;;;2.73;1.73;;;;;;;7.98;77.54;100939.41;5075808;28;20255;-73
2023/10/15 08:43:11;;;;;;;3.87;1.83;;;;;;;7.99;77.78;100942.94;5075844;28;20561;-73
2023/10/15 08:45:42;;;;;;;4.10;1.70;;;;;;;8.00;78.22;100941.97;5076018;28;20675;-72
2023/10/15 08:48:15;;;;;;;1.80;1.20;;;;;;;8.00;78.04;100940.13;5074460;28;20698;-72
2023/10/15 08:50:46;;;;;;;3.70;1.53;;;;;;;8.04;78.40;100946.03;5075632;28;20589;-73
2023/10/15 08:53:17;;;;;;;3.20;1.40;;;;;;;8.18;78.16;100959.78;5076082;28;20198;-73
2023/10/15 08:55:46;;;;;;;2.00;1.30;;;;;;;8.20;77.81;100951.66;5075811;28;20225;-72
2023/10/15 08:58:18;;;;;;;2.90;1.27;;;;;;;8.22;77.63;100955.00;5075508;28;20594;-73
2023/10/15 09:00:50;;;;;;;4.93;1.47;;;;;;;8.18;76.71;100965.13;5075874;28;20189;-73
2023/10/15 09:03:19;;;;;;;3.50;1.40;;;;;;;8.14;74.94;100970.88;5075754;28;20237;-72
2023/10/15 09:05:52;;;;;;;2.30;1.20;;;;;;;8.18;76.22;100971.44;5075663;28;20231;-73
2023/10/15 09:08:22;;;;;;;5.67;1.70;;;;;;;8.18;76.12;100969.63;5075660;28;20316;-73
2023/10/15 09:10:53;;;;;;;2.07;1.20;;;;;;;8.19;76.73;100976.63;5075682;28;20201;-73
2023/10/15 09:13:25;;;;;;;6.27;1.57;;;;;;;8.20;76.69;100978.31;5075588;28;20190;-73
2023/10/15 09:15:55;;;;;;;3.50;1.27;;;;;;;8.22;76.63;100976.34;5075501;28;20229;-72
2023/10/15 09:18:26;;;;;;;2.90;1.40;;;;;;;8.20;76.29;100969.47;5075419;28;20569;-72
2023/10/15 09:20:58;;;;;;;3.23;1.40;;;;;;;8.22;76.37;100970.19;5075500;28;20189;-73
2023/10/15 09:23:31;;;;;;;4.70;1.47;;;;;;;8.23;76.08;100970.03;5075442;28;20189;-73
2023/10/15 09:26:01;;;;;;;3.90;1.60;;;;;;;8.27;76.16;100986.59;5075278;28;20225;-72
2023/10/15 09:28:30;;;;;;;3.80;1.40;;;;;;;8.24;76.01;100979.72;5075037;28;20394;-73
2023/10/15 09:31:06;;;;;;;3.17;1.50;;;;;;;8.21;76.07;100988.03;5075247;28;20237;-73
2023/10/15 09:33:36;;;;;;;5.87;1.77;;;;;;;8.28;76.33;100993.63;5075152;28;20205;-73
2023/10/15 09:36:08;;;;;;;4.10;1.50;;;;;;;8.33;76.20;100989.59;5075072;28;20770;-73
2023/10/15 09:38:37;;;;;;;5.20;1.63;;;;;;;8.31;75.31;100990.72;5075113;28;20190;-73
2023/10/15 09:41:06;;;;;;;3.10;1.30;;;;;;;8.27;75.83;100999.94;5075030;28;20201;-73
2023/10/15 09:43:35;;;;;;;3.20;1.70;;;;;;;8.33;76.30;100999.41;5074972;28;20209;-73
2023/10/15 09:46:05;;;;;;;2.97;1.70;;;;;;;8.38;76.18;100998.03;5074877;28;20228;-72
2023/10/15 09:48:36;;;;;;;2.33;1.47;;;;;;;8.41;76.20;100999.56;5074813;28;20225;-72
2023/10/15 09:51:10;;;;;;;4.33;1.60;;;;;;;8.48;76.19;101004.22;5074511;28;20216;-72
2023/10/15 09:53:42;;;;;;;2.07;1.40;;;;;;;8.47;75.56;101002.50;5074812;28;20196;-72
2023/10/15 09:56:13;;;;;;;6.40;1.73;;;;;;;8.50;75.09;101012.91;5074666;28;20233;-72
2023/10/15 09:58:42;;;;;;;4.17;1.50;;;;;;;8.60;75.52;101007.56;5074646;28;20186;-73
2023/10/15 10:01:25;;;;;;;3.60;1.70;;;;;;;8.63;74.05;101016.13;5074429;28;20209;-73
2023/10/15 10:04:19;;;;;;;3.60;1.50;;;;;;;8.65;74.39;101019.53;5074188;28;20639;-72
2023/10/15 10:07:31;;;;;;;4.10;1.73;;;;;;;8.70;74.42;101015.59;5074560;28;20276;-72
2023/10/15 10:10:51;;;;;;;3.07;1.53;;;;;;;8.88;74.01;101016.53;5074426;28;20296;-72
2023/10/15 10:13:49;;;;;;;4.37;2.37;;;;;;;9.08;74.18;101012.84;5012375;28;20211;-72
2023/10/15 10:16:26;;;;;;;3.57;1.70;;;;;;;9.11;74.02;101016.06;5012611;28;20218;-72
2023/10/15 10:18:56;;;;;;;3.43;1.60;;;;;;;9.12;74.94;101017.75;5057974;28;20251;-72
2023/10/15 10:21:30;;;;;;;4.40;1.20;;;;;;;9.08;73.36;101028.88;5073939;28;20652;-72
2023/10/15 10:24:02;;;;;;;4.30;1.60;;;;;;;9.06;72.67;101030.84;5073844;28;20268;-72
2023/10/15 10:26:33;;;;;;;4.07;1.47;;;;;;;9.03;72.11;101031.13;5073855;28;20666;-73
2023/10/15 10:29:02;;;;;;;2.57;1.27;;;;;;;8.99;73.01;101032.41;5074036;28;20245;-73
2023/10/15 10:31:31;;;;;;;4.73;1.40;;;;;;;9.02;73.21;101032.97;5074012;28;20205;-73
2023/10/15 10:34:03;;;;;;;2.83;1.27;;;;;;;9.09;72.14;101030.56;5073919;28;20206;-72
2023/10/15 10:36:37;;;;;;;4.07;1.90;;;;;;;9.10;71.71;101037.59;5073707;28;20640;-73
2023/10/15 10:39:14;;;;;;;3.13;1.37;;;;;;;9.03;73.11;101036.47;5072001;28;20189;-72
2023/10/15 10:41:44;;;;;;;3.77;1.40;;;;;;;9.06;73.81;101041.53;5071594;28;20217;-72
2023/10/15 10:44:29;;;;;;;3.83;1.50;;;;;;;9.06;73.69;101036.19;5072714;28;20248;-72
2023/10/15 10:46:58;;;;;;;5.50;1.20;;;;;;;9.15;75.22;101046.84;5071884;28;20236;-72
2023/10/15 10:49:31;;;;;;;4.23;1.40;;;;;;;9.20;73.78;101033.06;5073229;28;20315;-73
2023/10/15 10:52:14;;;;;;;4.17;1.70;;;;;;;9.45;72.90;101031.59;5073774;28;20228;-73
2023/10/15 10:54:45;;;;;;;3.63;1.40;;;;;;;9.64;72.04;101026.16;5074044;28;20312;-70
2023/10/15 10:57:18;;;;;;;3.07;1.30;;;;;;;9.66;71.59;101035.72;5073670;28;20192;-72
2023/10/15 10:59:48;;;;;;;4.53;1.37;;;;;;;9.74;72.35;101021.63;5073707;28;20189;-73
2023/10/15 11:02:18;;;;;;;3.70;1.53;;;;;;;9.87;71.20;101022.09;5073643;28;20213;-71
2023/10/15 11:04:47;;;;;;;4.77;2.50;;;;;;;9.95;69.91;101024.88;5073546;28;20229;-70
2023/10/15 11:07:16;;;;;;;6.07;1.83;;;;;;;9.82;69.40;101028.91;5073193;28;20602;-70
2023/10/15 11:09:46;;;;;;;6.30;1.70;;;;;;;9.82;70.24;101016.38;5073506;28;20276;-70
2023/10/15 11:12:18;;;;;;;4.97;1.50;;;;;;;9.80;70.58;101029.03;5072821;28;20575;-70
2023/10/15 11:14:46;;;;;;;4.87;1.43;;;;;;;9.78;70.69;101022.16;5073503;28;20263;-71
2023/10/15 11:17:15;;;;;;;4.43;1.23;;;;;;;9.70;69.73;101041.63;5073481;28;20205;-71
2023/10/15 11:19:44;;;;;;;4.97;1.67;;;;;;;9.59;71.02;101039.97;5073400;28;20198;-71
2023/10/15 11:22:14;;;;;;;3.77;1.63;;;;;;;9.52;71.87;101036.19;5073352;28;20209;-70
2023/10/15 11:24:43;;;;;;;2.83;1.20;;;;;;;9.30;73.75;101043.72;5072963;28;20779;-70
2023/10/15 11:27:13;;;;;;;6.87;1.77;;;;;;;9.36;75.48;101051.16;5073341;28;20209;-70
2023/10/15 11:29:43;;;;;;;4.33;1.57;;;;;;;9.28;76.21;101061.75;5073281;28;20256;-72
2023/10/15 11:32:13;;;;;;;3.50;1.30;;;;;;;9.18;75.38;101059.06;5073234;28;20197;-71
2023/10/15 11:34:43;;;;;;;3.43;1.83;;;;;;;9.23;75.52;101056.81;5073261;28;20240;-70
2023/10/15 11:37:16;;;;;;;4.80;1.50;;;;;;;9.22;76.64;101057.78;5073323;28;20209;-73
2023/10/15 11:39:48;;;;;;;3.93;1.60;;;;;;;9.16;78.35;101074.41;5072949;28;20541;-73
2023/10/15 11:42:19;;;;;;;3.50;1.30;;;;;;;9.03;76.59;101079.22;5073234;28;20190;-72
2023/10/15 11:44:55;;;;;;;5.60;1.40;;;;;;;8.97;77.28;101064.56;5073180;28;20225;-73
2023/10/15 11:47:27;;;;;;;3.40;1.60;;;;;;;8.77;76.78;101065.56;5072920;28;20668;-74
2023/10/15 11:49:59;;;;;;;2.10;1.43;;;;;;;8.73;77.88;101066.88;5072961;28;20221;-73
2023/10/15 11:52:27;;;;;;;1.87;0.90;;;;;;;8.81;77.73;101064.31;5072846;28;20611;-74
2023/10/15 11:54:57;;;;;;;1.97;1.40;;;;;;;9.03;77.53;101058.69;5073030;28;20320;-73